KLGA/LGA METAR and TAF weather

Enter ICAO airport designator
Station Type Date Time Source
KLGA METAR 2023/10/01 21:51 UTC NOAA

KLGA 012151Z 01007KT 10SM FEW250 24/14 A3012 RMK AO2 SLP200 T02390144


Station Type Date Time Source
KLGA Decoded METAR 2023/10/01 21:51 UTC NOAA

NEW YORK LA GUARDIA AIRPORT , NY, United States (KLGA) 40-47N 73-53W 11M
Oct 01, 2023 - 05:51 PM EDT / 2023.10.01 2151 UTC
Wind: from the N (010 degrees) at 8 MPH (7 KT):0
Visibility: 10 mile(s):0
Sky conditions: mostly clear
Temperature: 75.0 F (23.9 C)
Dew Point: 57.9 F (14.4 C)
Relative Humidity: 55%
Pressure (altimeter): 30.12 in. Hg (1019 hPa)
ob: KLGA 012151Z 01007KT 10SM FEW250 24/14 A3012 RMK AO2 SLP200 T02390144
cycle: 22

Station Type Date Time Source
KLGA TAF 2023/10/01 21:42 UTC NOAA

TAF
AMD KLGA 012038Z 0121/0224 36010KT P6SM SKC
FM012300 36007KT P6SM SKC
FM021500 03007KT P6SM SKC
FM021800 07007KT 5SM HZ SKC

Example: see airport list